Orlando, FL (32801)

7:53 PM EST on December 08, 2016 (GMT -0500)
WFTV, Channel 9 | | Change Station

Elev 92 ft 28.54 °N, 81.37 °W | Updated 0 second ago

Mostly Cloudy
Mostly Cloudy
65.7 °F
Feels Like 65.7 °F
N
0.0
Wind Variable Wind from North
Gusts 1.0 mph

Today
High -- | Low -- °F
--% Chance of Precip.
Yesterday
High -- | Low -- °F
Precip. -- in
Pressure 30.17 in
Visibility 10.0 miles
Clouds Mostly Cloudy 12000 ft
Dew Point 53 °F
Humidity 64%
Rainfall 0.04 in
Snow Depth Not available.
7:06 AM 5:29 PM
Waxing Gibbous, 68% visible
METAR KORL 082353Z 34006KT 10SM BKN120 20/12 A3016 RMK AO2 SLP216 T02000117 10233 20200 53020
Pressure 30.17 in
Visibility 10.0 miles
Clouds Mostly Cloudy 12000 ft
Dew Point 53 °F
Humidity 64%
Rainfall 0.04 in
Snow Depth Not available.
7:06 AM 5:29 PM
Waxing Gibbous, 68% visible
METAR KORL 082353Z 34006KT 10SM BKN120 20/12 A3016 RMK AO2 SLP216 T02000117 10233 20200 53020

10-Day Weather Forecast

Almanac

Astronomy

Dec. 08, 2016 Rise Set
Actual Time
Civil Twilight
Nautical Twilight
Astronomical Twilight
Moon
Length of Visible Light
Length of Day
Tomorrow will be .
, % of the Moon is Illuminated

Today's Extremes

State Highs State Lows

Community

WunderPhotos

Upload Photos

1,956,277 photos uploaded!

WunderBlog® & News

Nearby

Air Quality

  Air Quality AQ Index Pollutant
Not available.

Snow Depth

Station Depth Elevation

Earthquake Activity

City Distance Mag. Time & Date
Minimum magnitude displayed is 2.5.

Coastal Water Temperatures

Place Temperature

Stations

Nearby Weather Stations

Station Location Temp. Windchill Dew Point Humidity Wind Precip. Elev Updated Type
                   

Watches & Warnings

There are currently no watches in effect.